Seville, Illinois
Current Conditions -  °F | °C
As of 4:15 AM on Monday 26 Jan 2015 (Local Time) from KMQB Reporting Station
Clear Clear  
Wind Chill: 14°   Ceiling: Unl
Heat Index: 20°   Visibility: 10mi
Dew Point: 17°   Wind: 5mph
Humidity: 89%   Direction: 320°NW
Pressure: 30.05"   Gusts: NA
Location:  40.4895°N, 90.2827°W
Report Text: KMQB 261015Z AUTO 32004KT 10SM CLR M07/M08 A3005 RMK AO2 T10661081
Loading
Personal Weather Stations






























Interactive Weather Map New forecast layout! Learn more

10-Day Weather Forecast

Advertisements
Track Severe Weather on mobile